Albany, New York
Traffic Map
Current Weather Conditions
Albany, New York
Overcast
Overcast
15°
Feels Like: 2°
Wind Chill: Ceiling: 5000
Heat Index: 15° Visibility: 10mi
Dew Point: Wind: 12mph
Humidity: 56% Direction: 360° (N)
Pressure: 29.85in Gusts: 0mph
Raw Report DataKALB 270951Z 36010KT 10SM OVC050 M09/M17 A2985 RMK AO2 SLP113 VIS LWR E-SE VCSH NE-S T10941167 $
Traffic Incident Summary
Active as of:
Severity:
Category:
InformationThere was an issue retrieving the traffic information for this location. Please try a different location or try again shortly.
Advertisements
Track Severe Weather on mobile